createdAt,value
2017-08-24T00:00:42.071Z,7.67
2017-08-24T00:03:10.351Z,8.80
2017-08-24T00:05:38.662Z,8.50
2017-08-24T00:08:06.956Z,7.23
2017-08-24T00:10:35.278Z,9.80
2017-08-24T00:13:03.589Z,9.47
2017-08-24T00:15:31.923Z,10.73
2017-08-24T00:18:00.218Z,8.20
2017-08-24T00:20:28.556Z,9.47
2017-08-24T00:22:56.862Z,10.73
2017-08-24T00:25:25.292Z,9.67
2017-08-24T00:27:53.606Z,10.33
2017-08-24T00:30:21.911Z,9.30
2017-08-24T00:32:50.236Z,8.10
2017-08-24T00:35:18.543Z,9.57
2017-08-24T00:37:46.870Z,10.93
2017-08-24T00:40:15.183Z,12.33
2017-08-24T00:42:43.575Z,11.80
2017-08-24T00:45:11.898Z,9.50
2017-08-24T00:47:40.231Z,9.43
2017-08-24T00:50:08.527Z,9.73
2017-08-24T00:52:36.858Z,9.30
2017-08-24T00:55:05.170Z,8.30
2017-08-24T00:57:33.504Z,10.20
2017-08-24T01:00:01.808Z,12.53
2017-08-24T01:02:30.907Z,13.47
2017-08-24T01:04:59.210Z,9.60
2017-08-24T01:07:27.551Z,15.53
2017-08-24T01:09:55.861Z,12.10
2017-08-24T01:12:24.197Z,12.63
2017-08-24T01:14:52.512Z,12.10
2017-08-24T01:17:20.839Z,12.30
2017-08-24T01:19:49.149Z,11.40
2017-08-24T01:22:17.471Z,12.93
2017-08-24T01:24:45.784Z,11.97
2017-08-24T01:27:14.270Z,13.93
2017-08-24T01:29:42.574Z,13.23
2017-08-24T01:32:10.878Z,12.20
2017-08-24T01:34:39.214Z,13.97
2017-08-24T01:37:07.528Z,14.00
2017-08-24T01:39:35.969Z,11.80
2017-08-24T01:42:04.267Z,13.37
2017-08-24T01:44:32.613Z,13.17
2017-08-24T01:47:00.903Z,11.17
2017-08-24T01:49:29.241Z,13.27
2017-08-24T01:51:57.558Z,12.37
2017-08-24T01:54:25.895Z,11.17
2017-08-24T01:56:54.213Z,11.97
2017-08-24T01:59:22.549Z,11.07
2017-08-24T02:01:50.871Z,11.90
2017-08-24T02:04:19.522Z,10.50
2017-08-24T02:06:47.834Z,9.53
2017-08-24T02:09:16.142Z,10.83
2017-08-24T02:11:44.478Z,10.30
2017-08-24T02:14:12.781Z,11.13
2017-08-24T02:16:41.107Z,11.13
2017-08-24T02:19:09.406Z,10.43
2017-08-24T02:21:37.756Z,11.40
2017-08-24T02:24:06.067Z,10.97
2017-08-24T02:26:34.418Z,12.10
2017-08-24T02:29:02.727Z,11.47
2017-08-24T02:31:31.171Z,11.40
2017-08-24T02:33:59.463Z,9.63
2017-08-24T02:36:27.772Z,10.70
2017-08-24T02:38:56.101Z,12.60
2017-08-24T02:41:24.409Z,12.80
2017-08-24T02:43:52.915Z,10.97
2017-08-24T02:46:21.195Z,11.07
2017-08-24T02:48:49.531Z,13.30
2017-08-24T02:51:17.830Z,11.47
2017-08-24T02:53:46.161Z,13.17
2017-08-24T02:56:15.242Z,12.83
2017-08-24T02:58:43.562Z,13.07
2017-08-24T03:01:11.873Z,10.67
2017-08-24T03:03:40.202Z,10.27
2017-08-24T03:06:08.528Z,11.00
2017-08-24T03:08:37.147Z,11.00
2017-08-24T03:11:05.471Z,8.73
2017-08-24T03:13:33.768Z,11.40
2017-08-24T03:16:02.094Z,10.50
2017-08-24T03:18:30.422Z,10.83
2017-08-24T03:20:58.749Z,13.00
2017-08-24T03:23:27.055Z,11.30
2017-08-24T03:25:55.374Z,10.53
2017-08-24T03:28:23.694Z,10.10
2017-08-24T03:30:52.027Z,11.60
2017-08-24T03:33:20.327Z,9.67
2017-08-24T03:35:49.425Z,10.20
2017-08-24T03:38:17.726Z,9.30
2017-08-24T03:40:46.037Z,11.60
2017-08-24T03:43:14.351Z,11.00
2017-08-24T03:45:42.644Z,12.20
2017-08-24T03:48:10.973Z,10.80
2017-08-24T03:50:39.285Z,11.60
2017-08-24T03:53:07.618Z,11.67
2017-08-24T03:55:35.935Z,10.07
2017-08-24T03:58:04.257Z,12.53
2017-08-24T04:00:32.568Z,10.27
2017-08-24T04:03:00.905Z,10.83
2017-08-24T04:05:29.206Z,10.40
2017-08-24T04:07:57.541Z,9.93
2017-08-24T04:10:25.852Z,9.27
2017-08-24T04:12:54.165Z,10.20
2017-08-24T04:15:23.231Z,11.87
2017-08-24T04:17:51.559Z,10.63
2017-08-24T04:20:19.859Z,10.60
2017-08-24T04:22:48.298Z,10.80
2017-08-24T04:25:16.602Z,12.17
2017-08-24T04:27:44.922Z,11.27
2017-08-24T04:30:13.296Z,10.83
2017-08-24T04:32:41.608Z,11.53
2017-08-24T04:35:09.940Z,12.37
2017-08-24T04:37:38.241Z,10.70
2017-08-24T04:40:06.582Z,14.30
2017-08-24T04:42:34.879Z,15.10
2017-08-24T04:45:03.202Z,11.30
2017-08-24T04:47:31.507Z,15.00
2017-08-24T04:49:59.836Z,12.97
2017-08-24T04:52:28.139Z,13.20
2017-08-24T04:54:56.475Z,13.83
2017-08-24T04:57:24.787Z,16.77
2017-08-24T04:59:53.343Z,13.27
2017-08-24T05:02:21.648Z,15.37
2017-08-24T05:04:49.950Z,16.60
2017-08-24T05:07:18.282Z,18.63
2017-08-24T05:09:46.586Z,15.37
2017-08-24T05:12:14.918Z,17.07
2017-08-24T05:14:43.231Z,13.17
2017-08-24T05:17:11.562Z,14.00
2017-08-24T05:19:39.866Z,12.83
2017-08-24T05:22:08.414Z,13.73
2017-08-24T05:24:36.732Z,12.23
2017-08-24T05:27:05.042Z,14.17
2017-08-24T05:29:33.374Z,12.77
2017-08-24T05:32:02.453Z,13.00
2017-08-24T05:34:30.779Z,12.63
2017-08-24T05:36:59.126Z,11.37
2017-08-24T05:39:27.454Z,12.57
2017-08-24T05:41:55.771Z,12.53
2017-08-24T05:44:24.889Z,15.70
2017-08-24T05:46:53.193Z,13.10
2017-08-24T05:49:22.035Z,14.57
2017-08-24T05:51:50.367Z,16.47
2017-08-24T05:54:18.701Z,15.57
2017-08-24T05:56:47.043Z,14.93
2017-08-24T05:59:15.383Z,13.93
2017-08-24T06:01:43.715Z,12.07
2017-08-24T06:04:12.030Z,13.67
2017-08-24T06:06:40.371Z,13.50
2017-08-24T06:09:08.695Z,13.77
2017-08-24T06:11:37.127Z,14.93
2017-08-24T06:14:05.446Z,16.00
2017-08-24T06:16:33.775Z,17.23
2017-08-24T06:19:02.579Z,16.70
2017-08-24T06:21:30.879Z,17.60
2017-08-24T06:23:59.216Z,19.13
2017-08-24T06:26:27.543Z,22.53
2017-08-24T06:28:55.882Z,21.67
2017-08-24T06:31:24.183Z,23.40
2017-08-24T06:33:52.518Z,21.57
2017-08-24T06:36:20.825Z,26.00
2017-08-24T06:38:49.157Z,28.77
2017-08-24T06:41:17.484Z,26.80
2017-08-24T06:43:45.832Z,31.00
2017-08-24T06:46:15.011Z,30.87
2017-08-24T06:48:43.340Z,28.57
2017-08-24T06:51:11.762Z,28.97
2017-08-24T06:53:40.187Z,29.17
2017-08-24T06:56:08.643Z,26.10
2017-08-24T06:58:36.936Z,29.63
2017-08-24T07:01:05.495Z,27.60
2017-08-24T07:03:33.806Z,25.80
2017-08-24T07:06:02.355Z,26.87
2017-08-24T07:08:30.670Z,25.33
2017-08-24T07:10:59.183Z,25.20
2017-08-24T07:13:27.522Z,26.90
2017-08-24T07:15:56.087Z,26.07
2017-08-24T07:18:24.414Z,26.77
2017-08-24T07:20:52.796Z,26.13
2017-08-24T07:23:21.107Z,26.67
2017-08-24T07:25:49.714Z,28.97
2017-08-24T07:28:18.027Z,25.93
2017-08-24T07:30:46.326Z,25.10
2017-08-24T07:33:14.691Z,27.20
2017-08-24T07:35:43.091Z,25.63
2017-08-24T07:38:11.432Z,24.43
2017-08-24T07:40:39.935Z,25.53
2017-08-24T07:43:08.272Z,25.90
2017-08-24T07:45:36.596Z,24.90
2017-08-24T07:48:04.936Z,23.83
2017-08-24T07:50:33.265Z,23.50
2017-08-24T07:53:01.979Z,25.70
2017-08-24T07:55:30.321Z,23.67
2017-08-24T07:57:58.679Z,23.33
2017-08-24T08:00:27.029Z,20.90
2017-08-24T08:02:55.349Z,23.87
2017-08-24T08:05:23.688Z,25.50
2017-08-24T08:07:52.023Z,30.00
2017-08-24T08:10:20.408Z,23.60
2017-08-24T08:12:48.751Z,25.90
2017-08-24T08:15:17.121Z,25.70
2017-08-24T08:17:45.487Z,26.73
2017-08-24T08:20:13.973Z,22.77
2017-08-24T08:22:42.302Z,27.17
2017-08-24T08:25:10.601Z,26.53
2017-08-24T08:27:38.973Z,27.90
2017-08-24T08:30:07.355Z,26.73
2017-08-24T08:32:35.771Z,28.30
2017-08-24T08:35:04.097Z,27.13
2017-08-24T08:37:32.653Z,25.80
2017-08-24T08:40:01.762Z,29.20
2017-08-24T08:42:30.155Z,31.10
2017-08-24T08:44:58.602Z,33.23
2017-08-24T08:47:27.035Z,31.43
2017-08-24T08:49:55.562Z,35.60
2017-08-24T08:52:24.120Z,32.67
2017-08-24T08:54:52.465Z,35.20
2017-08-24T08:57:20.910Z,34.57
2017-08-24T08:59:49.298Z,34.40
2017-08-24T09:02:17.620Z,29.47
2017-08-24T09:04:46.187Z,32.77
2017-08-24T09:07:14.550Z,34.27
2017-08-24T09:09:42.987Z,34.67
2017-08-24T09:12:11.323Z,37.27
2017-08-24T09:14:39.679Z,37.20
2017-08-24T09:17:08.754Z,33.30
2017-08-24T09:19:37.345Z,31.77
2017-08-24T09:22:05.817Z,33.53
2017-08-24T09:24:34.177Z,34.87
2017-08-24T09:27:02.595Z,33.57
2017-08-24T09:29:30.910Z,32.50
2017-08-24T09:31:59.297Z,32.77
2017-08-24T09:34:27.688Z,31.23
2017-08-24T09:36:56.028Z,34.17
2017-08-24T09:39:24.545Z,33.07
2017-08-24T09:41:52.902Z,33.90
2017-08-24T09:44:21.269Z,32.97
2017-08-24T09:46:49.610Z,33.97
2017-08-24T09:49:17.946Z,32.67
2017-08-24T09:51:47.241Z,31.60
2017-08-24T09:54:15.579Z,32.10
2017-08-24T09:56:43.963Z,33.30
2017-08-24T09:59:12.335Z,34.07
2017-08-24T10:01:40.674Z,31.40
2017-08-24T10:04:09.006Z,30.13
2017-08-24T10:06:37.320Z,32.80
2017-08-24T10:09:05.675Z,33.43
2017-08-24T10:11:34.018Z,30.40
2017-08-24T10:14:02.768Z,31.17
2017-08-24T10:16:31.108Z,29.90
2017-08-24T10:18:59.471Z,30.23
2017-08-24T10:21:27.774Z,29.40
2017-08-24T10:23:56.133Z,29.60
2017-08-24T10:26:24.515Z,27.70
2017-08-24T10:28:52.875Z,31.20
2017-08-24T10:31:21.356Z,31.17
2017-08-24T10:33:49.681Z,30.60
2017-08-24T10:36:18.855Z,30.87
2017-08-24T10:38:47.183Z,32.10
2017-08-24T10:41:16.279Z,30.30
2017-08-24T10:43:44.599Z,32.90
2017-08-24T10:46:12.938Z,31.13
2017-08-24T10:48:41.268Z,34.80
2017-08-24T10:51:10.367Z,29.30
2017-08-24T10:53:38.691Z,32.10
2017-08-24T10:56:07.061Z,32.07
2017-08-24T10:58:36.116Z,33.00
2017-08-24T11:01:04.630Z,29.60
2017-08-24T11:03:33.219Z,28.97
2017-08-24T11:06:01.575Z,29.73
2017-08-24T11:08:29.910Z,31.53
2017-08-24T11:10:58.227Z,32.07
2017-08-24T11:13:26.587Z,32.63
2017-08-24T11:15:54.919Z,32.10
2017-08-24T11:18:24.123Z,31.17
2017-08-24T11:20:52.434Z,30.07
2017-08-24T11:23:20.781Z,30.83
2017-08-24T11:25:49.109Z,29.80
2017-08-24T11:28:17.419Z,32.50
2017-08-24T11:30:45.723Z,30.63
2017-08-24T11:33:14.155Z,28.03
2017-08-24T11:35:42.489Z,29.50
2017-08-24T11:38:10.870Z,25.33
2017-08-24T11:40:39.199Z,27.33
2017-08-24T11:43:07.544Z,24.87
2017-08-24T11:45:35.885Z,22.50
2017-08-24T11:48:04.215Z,20.00
2017-08-24T11:50:32.551Z,19.00
2017-08-24T11:53:00.858Z,20.47
2017-08-24T11:55:29.189Z,18.40
2017-08-24T11:57:57.526Z,21.00
2017-08-24T12:00:25.865Z,19.20
2017-08-24T12:02:54.193Z,19.43
2017-08-24T12:05:22.860Z,21.37
2017-08-24T12:07:51.195Z,22.00
2017-08-24T12:10:19.511Z,18.40
2017-08-24T12:12:47.865Z,21.70
2017-08-24T12:15:16.360Z,21.73
2017-08-24T12:17:44.722Z,25.90
2017-08-24T12:20:13.157Z,25.50
2017-08-24T12:22:42.018Z,22.73
2017-08-24T12:25:11.593Z,28.20
2017-08-24T12:27:40.011Z,22.13
2017-08-24T12:30:08.328Z,22.60
2017-08-24T12:32:36.772Z,21.40
2017-08-24T12:35:05.279Z,19.30
2017-08-24T12:37:33.647Z,19.00
2017-08-24T12:40:01.991Z,19.10
2017-08-24T12:42:30.350Z,21.03
2017-08-24T12:44:58.736Z,21.10
2017-08-24T12:47:27.123Z,21.70
2017-08-24T12:49:55.612Z,22.20
2017-08-24T12:52:23.945Z,20.33
2017-08-24T12:54:52.320Z,23.23
2017-08-24T12:57:20.643Z,23.60
2017-08-24T12:59:48.990Z,23.27
2017-08-24T13:02:17.409Z,20.63
2017-08-24T13:04:45.802Z,21.30
2017-08-24T13:07:14.173Z,21.20
2017-08-24T13:09:42.664Z,19.17
2017-08-24T13:12:11.015Z,19.47
2017-08-24T13:14:39.391Z,18.33
2017-08-24T13:17:08.027Z,20.43
2017-08-24T13:19:36.410Z,20.77
2017-08-24T13:22:04.765Z,19.83
2017-08-24T13:24:33.077Z,18.57
2017-08-24T13:27:01.459Z,19.67
2017-08-24T13:29:29.807Z,21.77
2017-08-24T13:31:58.148Z,22.40
2017-08-24T13:34:26.525Z,22.30
2017-08-24T13:36:54.915Z,22.10
2017-08-24T13:39:23.307Z,22.00
2017-08-24T13:41:51.682Z,26.40
2017-08-24T13:44:20.065Z,21.37
2017-08-24T13:46:48.451Z,28.10
2017-08-24T13:49:16.818Z,23.23
2017-08-24T13:51:45.155Z,21.20
2017-08-24T13:54:13.489Z,21.20
2017-08-24T13:56:41.934Z,24.00
2017-08-24T13:59:10.953Z,24.57
2017-08-24T14:01:39.480Z,22.50
2017-08-24T14:04:07.885Z,22.20
2017-08-24T14:06:36.214Z,22.50
2017-08-24T14:09:04.573Z,23.33
2017-08-24T14:11:33.010Z,25.20
2017-08-24T14:14:01.311Z,24.20
2017-08-24T14:16:29.677Z,23.60
2017-08-24T14:18:58.000Z,23.60
2017-08-24T14:21:26.425Z,22.37
2017-08-24T14:23:54.800Z,22.17
2017-08-24T14:26:23.130Z,23.50
2017-08-24T14:28:51.426Z,20.97
2017-08-24T14:31:19.755Z,20.93
2017-08-24T14:33:48.067Z,21.80
2017-08-24T14:36:16.618Z,19.20
2017-08-24T14:38:44.944Z,24.07
2017-08-24T14:41:13.298Z,19.90
2017-08-24T14:43:41.694Z,23.10
2017-08-24T14:46:10.108Z,23.00
2017-08-24T14:48:38.452Z,25.17
2017-08-24T14:51:06.860Z,28.03
2017-08-24T14:53:35.218Z,27.23
2017-08-24T14:56:04.924Z,26.43
2017-08-24T14:58:33.142Z,26.97
2017-08-24T15:01:01.549Z,28.00
2017-08-24T15:03:30.211Z,24.60
2017-08-24T15:05:58.782Z,22.97
2017-08-24T15:08:27.147Z,24.43
2017-08-24T15:10:55.502Z,23.40
2017-08-24T15:13:23.828Z,26.17
2017-08-24T15:15:52.310Z,22.80
2017-08-24T15:18:20.674Z,21.10
2017-08-24T15:20:48.995Z,23.00
2017-08-24T15:23:17.367Z,21.33
2017-08-24T15:25:45.734Z,24.70
2017-08-24T15:28:14.049Z,25.43
2017-08-24T15:30:42.761Z,21.17
2017-08-24T15:33:11.083Z,21.80
2017-08-24T15:35:39.417Z,24.73
2017-08-24T15:38:07.818Z,22.70
2017-08-24T15:40:36.164Z,24.40
2017-08-24T15:43:04.510Z,22.30
2017-08-24T15:45:32.826Z,26.60
2017-08-24T15:48:01.131Z,31.50
2017-08-24T15:50:29.435Z,25.00
2017-08-24T15:52:57.789Z,25.67
2017-08-24T15:55:26.114Z,26.87
2017-08-24T15:57:54.468Z,27.13
2017-08-24T16:00:22.786Z,25.27
2017-08-24T16:02:51.233Z,25.63
2017-08-24T16:05:19.596Z,24.90
2017-08-24T16:07:47.998Z,26.40
2017-08-24T16:10:16.712Z,23.27
2017-08-24T16:12:45.182Z,21.47
2017-08-24T16:15:13.555Z,21.40
2017-08-24T16:17:41.916Z,24.40
2017-08-24T16:20:10.295Z,22.20
2017-08-24T16:22:38.635Z,24.27
2017-08-24T16:25:06.994Z,22.20
2017-08-24T16:27:35.357Z,20.33
2017-08-24T16:30:03.780Z,26.27
2017-08-24T16:32:32.095Z,25.20
2017-08-24T16:35:00.499Z,24.60
2017-08-24T16:37:28.823Z,23.27
2017-08-24T16:39:57.135Z,19.77
2017-08-24T16:42:25.472Z,20.53
2017-08-24T16:44:53.851Z,21.70
2017-08-24T16:47:22.160Z,23.00
2017-08-24T16:49:50.708Z,22.50
2017-08-24T16:52:19.175Z,22.60
2017-08-24T16:54:47.537Z,23.87
2017-08-24T16:57:16.036Z,28.47
2017-08-24T16:59:44.466Z,25.10
2017-08-24T17:02:12.854Z,32.33
2017-08-24T17:04:41.205Z,23.50
2017-08-24T17:07:11.303Z,26.60
2017-08-24T17:09:41.513Z,23.00
2017-08-24T17:12:09.878Z,25.47
2017-08-24T17:14:38.202Z,23.57
2017-08-24T17:17:06.642Z,25.03
2017-08-24T17:19:34.999Z,25.30
2017-08-24T17:22:03.521Z,25.40
2017-08-24T17:24:31.845Z,26.67
2017-08-24T17:27:00.176Z,25.33
2017-08-24T17:29:28.606Z,22.70
2017-08-24T17:31:57.015Z,22.93
2017-08-24T17:34:25.375Z,26.83
2017-08-24T17:36:53.684Z,23.67
2017-08-24T17:39:22.865Z,25.77
2017-08-24T17:41:51.300Z,24.20
2017-08-24T17:44:19.650Z,25.03
2017-08-24T17:46:47.998Z,24.63
2017-08-24T17:49:16.675Z,26.17
2017-08-24T17:51:45.255Z,23.57
2017-08-24T17:54:13.604Z,24.67
2017-08-24T17:56:41.973Z,24.83
2017-08-24T17:59:10.451Z,22.53
2017-08-24T18:01:38.798Z,26.40
2017-08-24T18:04:07.155Z,22.50
2017-08-24T18:06:35.492Z,24.70
2017-08-24T18:09:03.843Z,25.07
2017-08-24T18:11:32.981Z,28.20
2017-08-24T18:14:01.310Z,26.60
2017-08-24T18:16:29.648Z,28.30
2017-08-24T18:18:58.017Z,29.27
2017-08-24T18:21:26.389Z,26.40
2017-08-24T18:23:54.731Z,25.60
2017-08-24T18:26:23.431Z,26.27
2017-08-24T18:28:51.932Z,24.40
2017-08-24T18:31:20.237Z,27.83
2017-08-24T18:33:48.591Z,23.57
2017-08-24T18:36:16.924Z,25.50
2017-08-24T18:38:45.334Z,22.87
2017-08-24T18:41:13.748Z,21.80
2017-08-24T18:43:42.100Z,26.07
2017-08-24T18:46:10.440Z,26.90
2017-08-24T18:48:38.824Z,22.63
2017-08-24T18:51:07.217Z,24.60
2017-08-24T18:53:35.572Z,25.00
2017-08-24T18:56:04.391Z,26.63
2017-08-24T18:58:32.813Z,27.90
2017-08-24T19:01:01.186Z,22.40
2017-08-24T19:03:29.520Z,24.90
2017-08-24T19:05:57.930Z,24.17
2017-08-24T19:08:26.278Z,23.83
2017-08-24T19:10:54.630Z,26.90
2017-08-24T19:13:22.958Z,25.90
2017-08-24T19:15:51.321Z,24.00
2017-08-24T19:18:20.427Z,25.20
2017-08-24T19:20:48.805Z,22.77
2017-08-24T19:23:17.205Z,25.00
2017-08-24T19:25:45.588Z,23.27
2017-08-24T19:28:13.944Z,20.43
2017-08-24T19:30:42.316Z,24.30
2017-08-24T19:33:10.771Z,23.10
2017-08-24T19:35:39.314Z,21.40
2017-08-24T19:38:07.773Z,21.23
2017-08-24T19:40:36.160Z,20.23
2017-08-24T19:43:04.575Z,24.10
2017-08-24T19:45:32.946Z,26.40
2017-08-24T19:48:01.317Z,23.70
2017-08-24T19:50:30.530Z,25.47
2017-08-24T19:52:58.890Z,26.00
2017-08-24T19:55:27.233Z,27.70
2017-08-24T19:57:55.651Z,24.70
2017-08-24T20:00:24.120Z,23.70
2017-08-24T20:02:52.437Z,27.90
2017-08-24T20:05:20.764Z,25.23
2017-08-24T20:07:49.110Z,21.70
2017-08-24T20:10:17.440Z,24.60
2017-08-24T20:12:46.640Z,19.93
2017-08-24T20:15:15.007Z,24.33
2017-08-24T20:17:43.527Z,23.50
2017-08-24T20:20:12.660Z,23.03
2017-08-24T20:22:41.013Z,20.60
2017-08-24T20:25:09.480Z,20.17
2017-08-24T20:27:37.939Z,20.83
2017-08-24T20:30:06.304Z,21.07
2017-08-24T20:32:34.726Z,20.03
2017-08-24T20:35:03.068Z,27.13
2017-08-24T20:37:31.447Z,22.20
2017-08-24T20:39:59.857Z,21.37
2017-08-24T20:42:28.239Z,22.93
2017-08-24T20:44:56.666Z,23.10
2017-08-24T20:47:25.009Z,22.20
2017-08-24T20:49:53.339Z,22.40
2017-08-24T20:52:21.735Z,22.23
2017-08-24T20:54:50.279Z,25.70
2017-08-24T20:57:18.622Z,24.23
2017-08-24T20:59:47.008Z,23.00
2017-08-24T21:02:15.350Z,32.87
2017-08-24T21:04:43.691Z,31.87
2017-08-24T21:07:12.127Z,25.10
2017-08-24T21:09:40.512Z,24.40
2017-08-24T21:12:08.877Z,25.43
2017-08-24T21:14:37.257Z,22.97
2017-08-24T21:17:05.627Z,23.10
2017-08-24T21:19:34.188Z,24.23
2017-08-24T21:22:02.533Z,23.73
2017-08-24T21:24:30.932Z,26.20
2017-08-24T21:26:59.321Z,24.40
2017-08-24T21:29:27.688Z,24.70
2017-08-24T21:31:56.203Z,24.47
2017-08-24T21:34:24.591Z,29.40
2017-08-24T21:36:52.949Z,26.27
2017-08-24T21:39:21.373Z,29.90
2017-08-24T21:41:49.715Z,28.33
2017-08-24T21:44:18.179Z,27.27
2017-08-24T21:46:46.545Z,28.37
2017-08-24T21:49:14.909Z,28.30
2017-08-24T21:51:43.265Z,33.73
2017-08-24T21:54:11.776Z,28.00
2017-08-24T21:56:40.115Z,32.27
2017-08-24T21:59:08.770Z,29.83
2017-08-24T22:01:37.126Z,28.97
2017-08-24T22:04:06.295Z,29.10
2017-08-24T22:06:34.663Z,33.47
2017-08-24T22:09:03.273Z,32.20
2017-08-24T22:11:31.741Z,30.13
2017-08-24T22:14:00.265Z,30.70
2017-08-24T22:16:28.721Z,32.63
2017-08-24T22:18:57.018Z,31.30
2017-08-24T22:21:25.582Z,34.47
2017-08-24T22:23:53.891Z,32.13
2017-08-24T22:26:22.208Z,33.93
2017-08-24T22:28:50.682Z,31.00
2017-08-24T22:31:18.979Z,36.07
2017-08-24T22:33:47.311Z,32.60
2017-08-24T22:36:15.675Z,31.90
2017-08-24T22:38:44.239Z,31.90
2017-08-24T22:41:12.549Z,33.70
2017-08-24T22:43:40.886Z,32.70
2017-08-24T22:46:09.218Z,32.77
2017-08-24T22:48:37.542Z,30.87
2017-08-24T22:51:05.862Z,28.50
2017-08-24T23:06:56.290Z,30.50
2017-08-24T23:09:24.594Z,34.30
2017-08-24T23:11:52.937Z,34.97
2017-08-24T23:14:21.239Z,33.80
2017-08-24T23:16:49.576Z,34.20
2017-08-24T23:19:17.900Z,35.30
2017-08-24T23:21:46.219Z,34.20
2017-08-24T23:24:14.575Z,33.63
2017-08-24T23:26:42.979Z,38.60
2017-08-24T23:29:11.820Z,37.20
2017-08-24T23:31:40.199Z,34.90
2017-08-24T23:34:08.539Z,36.57
2017-08-24T23:36:36.943Z,34.43
2017-08-24T23:39:05.305Z,35.57
2017-08-24T23:41:33.990Z,33.63
2017-08-24T23:44:02.461Z,32.80
2017-08-24T23:46:30.810Z,37.83
2017-08-24T23:48:59.181Z,34.43
2017-08-24T23:51:27.483Z,33.50
2017-08-24T23:53:57.320Z,35.53
2017-08-24T23:56:25.632Z,35.57
2017-08-24T23:58:53.966Z,34.40
